Aviation Digital Data Service (ADDS)

Output produced by METARs form (2221 UTC 17 October 2017)
found at http://aviationweather.gov/adds/metars/
 
KLYH 171720Z 1718/1818 04004KT P6SM SKC